Time;durP1;ratioP1;P1;durP2;ratioP2;P2;SDS_P1;SDS_P2;PMS_P1;PMS_P2;Temp;Humidity;BMP_temperature;BMP_pressure;BME280_temperature;BME280_humidity;BME280_pressure;Samples;Min_cycle;Max_cycle;Signal;HPM_P1;HPM_P2
2022/08/11 00:00:10;;;;;;;2.20;1.90;;;22.90;52.60;;;;;;5000171;28;20525;-86
2022/08/11 00:02:46;;;;;;;3.03;2.35;;;22.90;52.50;;;;;;5000421;28;20205;-84
2022/08/11 00:05:18;;;;;;;5.55;2.13;;;22.80;52.50;;;;;;4981561;28;20179;-80
2022/08/11 00:07:56;;;;;;;3.30;1.85;;;22.80;52.60;;;;;;4995212;28;20187;-70
2022/08/11 00:10:26;;;;;;;3.47;1.95;;;22.80;53.30;;;;;;5004798;28;20233;-70
2022/08/11 00:13:04;;;;;;;3.35;1.90;;;22.80;53.00;;;;;;5007056;28;20192;-71
2022/08/11 00:15:43;;;;;;;2.38;2.13;;;22.80;53.60;;;;;;5006193;28;20206;-71
2022/08/11 00:18:10;;;;;;;2.40;1.90;;;22.80;53.70;;;;;;5022967;28;20199;-71
2022/08/11 00:20:40;;;;;;;3.25;2.03;;;22.80;53.10;;;;;;5009231;28;20180;-70
2022/08/11 00:23:08;;;;;;;2.08;1.85;;;22.80;53.40;;;;;;5012602;28;20183;-71
2022/08/11 00:25:56;;;;;;;2.40;2.10;;;22.70;53.30;;;;;;5005212;28;20235;-71
2022/08/11 00:28:32;;;;;;;3.85;2.40;;;22.70;53.80;;;;;;5015784;28;20251;-70
2022/08/11 00:31:07;;;;;;;2.10;1.90;;;22.60;53.60;;;;;;5008752;28;20211;-71
2022/08/11 00:33:39;;;;;;;2.88;1.98;;;22.60;53.90;;;;;;5006979;28;20201;-70
2022/08/11 00:36:07;;;;;;;3.05;2.40;;;22.60;54.10;;;;;;5005879;28;20210;-70
2022/08/11 00:38:37;;;;;;;2.28;2.08;;;22.50;54.00;;;;;;5023295;28;20198;-72
2022/08/11 00:41:19;;;;;;;2.30;2.10;;;22.40;54.20;;;;;;5002318;28;20203;-70
2022/08/11 00:43:50;;;;;;;3.17;2.20;;;22.40;55.30;;;;;;5020169;28;20171;-71
2022/08/11 00:46:27;;;;;;;2.85;2.17;;;22.30;54.60;;;;;;5025559;28;20206;-71
2022/08/11 00:49:17;;;;;;;5.20;2.13;;;22.30;54.50;;;;;;5012108;28;20159;-71
2022/08/11 00:52:02;;;;;;;2.85;2.15;;;22.20;55.20;;;;;;5009773;28;20397;-70
2022/08/11 00:54:40;;;;;;;2.72;2.10;;;22.20;55.40;;;;;;5024281;28;20215;-70
2022/08/11 00:57:26;;;;;;;3.35;2.25;;;22.10;54.70;;;;;;5028265;28;20235;-71
2022/08/11 01:00:01;;;;;;;3.03;2.00;;;22.10;55.50;;;;;;5026590;28;20226;-70
2022/08/11 01:02:54;;;;;;;3.97;2.33;;;22.10;55.50;;;;;;5022219;28;20290;-72
2022/08/11 01:05:44;;;;;;;2.40;2.08;;;22.10;55.40;;;;;;5004473;28;20213;-71
2022/08/11 01:08:40;;;;;;;2.40;2.17;;;22.10;56.00;;;;;;5016862;28;20176;-71
2022/08/11 01:11:26;;;;;;;2.78;2.20;;;22.00;56.10;;;;;;5014046;28;20217;-71
2022/08/11 01:14:06;;;;;;;2.60;2.10;;;22.00;56.20;;;;;;5026866;28;20215;-71
2022/08/11 01:16:59;;;;;;;4.32;2.33;;;21.90;55.70;;;;;;5027218;28;20171;-70
2022/08/11 01:19:46;;;;;;;2.13;1.92;;;21.90;56.30;;;;;;5019867;28;20183;-70
2022/08/11 01:22:43;;;;;;;2.03;1.83;;;21.80;56.30;;;;;;5007719;28;20210;-71
2022/08/11 01:25:33;;;;;;;2.75;2.15;;;21.80;56.30;;;;;;5016050;28;20197;-71
2022/08/11 01:28:07;;;;;;;3.40;2.20;;;21.70;56.80;;;;;;5013236;28;20184;-70
2022/08/11 01:31:24;;;;;;;2.30;2.10;;;21.70;56.50;;;;;;5009917;28;20187;-71
2022/08/11 01:34:25;;;;;;;2.08;1.88;;;21.60;57.00;;;;;;4995487;28;20180;-71
2022/08/11 01:37:01;;;;;;;2.83;1.90;;;21.60;56.90;;;;;;5035879;28;20182;-71
2022/08/11 01:39:39;;;;;;;2.53;2.00;;;21.50;56.20;;;;;;4998200;28;20151;-70
2022/08/11 01:46:04;;;;;;;2.60;2.05;;;21.50;57.20;;;;;;5012906;28;20214;-70
2022/08/11 01:48:50;;;;;;;2.20;2.00;;;21.50;57.50;;;;;;5023532;28;20190;-70
2022/08/11 01:51:30;;;;;;;2.55;1.98;;;21.40;57.30;;;;;;5006015;28;20184;-72
2022/08/11 01:54:02;;;;;;;2.20;1.80;;;21.40;57.10;;;;;;5015061;28;20207;-71
2022/08/11 01:56:59;;;;;;;2.10;1.88;;;21.40;57.10;;;;;;5020186;28;20231;-71
2022/08/11 01:59:27;;;;;;;2.05;1.85;;;21.30;57.40;;;;;;5014531;28;20163;-71
2022/08/11 02:02:14;;;;;;;2.22;2.00;;;21.30;56.70;;;;;;5029256;28;20175;-71
2022/08/11 02:05:09;;;;;;;2.00;1.80;;;21.30;57.10;;;;;;5023291;28;20176;-71
2022/08/11 02:07:51;;;;;;;2.17;1.80;;;21.20;57.20;;;;;;4998354;28;20214;-71
2022/08/11 02:13:10;;;;;;;1.80;1.70;;;21.20;57.20;;;;;;5012400;28;20194;-71
2022/08/11 02:15:42;;;;;;;2.85;1.88;;;21.20;57.00;;;;;;5041393;28;20171;-70
2022/08/11 02:23:38;;;;;;;3.92;2.20;;;21.20;57.50;;;;;;5010795;28;20200;-70
2022/08/11 02:24:15;;;;;;;2.55;1.80;;;21.10;57.40;;;;;;5000480;28;20179;-71
2022/08/11 02:26:45;;;;;;;2.65;1.90;;;21.10;57.60;;;;;;5012141;28;20178;-70
2022/08/11 02:29:20;;;;;;;2.30;2.10;;;21.00;57.60;;;;;;5011937;28;20270;-71
2022/08/11 02:35:19;;;;;;;2.10;1.75;;;21.00;58.60;;;;;;5013513;28;20243;-71
2022/08/11 02:38:18;;;;;;;3.92;1.98;;;20.90;58.10;;;;;;5010174;28;20188;-71
2022/08/11 02:44:58;;;;;;;2.33;1.90;;;20.90;58.90;;;;;;4930346;29;20276;-71
2022/08/11 02:49:52;;;;;;;2.10;1.80;;;20.80;58.80;;;;;;5002215;28;20202;-71
2022/08/11 02:50:35;;;;;;;2.58;1.85;;;20.80;59.10;;;;;;5008667;28;20288;-71
2022/08/11 02:53:13;;;;;;;2.65;1.95;;;20.70;58.40;;;;;;5070976;22;20337;-68
2022/08/11 02:55:51;;;;;;;2.80;2.10;;;20.70;58.60;;;;;;5026018;28;20194;-66
2022/08/11 02:58:43;;;;;;;3.00;1.95;;;20.70;59.10;;;;;;5014073;28;20179;-65
2022/08/11 03:01:27;;;;;;;1.98;1.75;;;20.70;59.40;;;;;;4997687;28;20175;-66
2022/08/11 03:03:56;;;;;;;2.22;2.00;;;20.70;59.60;;;;;;4988564;28;20218;-66
2022/08/11 03:06:35;;;;;;;3.78;2.15;;;20.60;58.80;;;;;;4995237;28;20187;-65
2022/08/11 03:09:24;;;;;;;2.53;2.25;;;20.60;59.70;;;;;;4993351;28;20194;-65
2022/08/11 03:18:01;;;;;;;2.33;1.92;;;20.50;60.50;;;;;;5005769;28;20232;-66
2022/08/11 03:20:34;;;;;;;2.15;1.83;;;20.40;59.70;;;;;;5005735;28;20182;-65
2022/08/11 03:23:21;;;;;;;2.97;2.08;;;20.30;59.90;;;;;;5005996;28;20209;-66
2022/08/11 03:26:23;;;;;;;2.10;1.90;;;20.30;60.30;;;;;;4989068;28;20387;-67
2022/08/11 03:29:13;;;;;;;7.03;5.95;;;20.20;60.40;;;;;;4979903;28;20186;-68
2022/08/11 03:32:05;;;;;;;4.55;3.35;;;20.20;61.20;;;;;;4998206;28;20245;-66
2022/08/11 03:34:36;;;;;;;4.80;3.50;;;20.10;61.40;;;;;;5020264;28;20190;-65
2022/08/11 03:37:49;;;;;;;3.15;2.85;;;20.10;60.20;;;;;;4982205;28;20230;-67
2022/08/11 03:43:28;;;;;;;6.20;4.97;;;20.10;60.80;;;;;;4999488;28;20199;-66
2022/08/11 03:46:17;;;;;;;3.30;3.00;;;20.10;61.00;;;;;;4979940;28;20211;-66
2022/08/11 03:49:10;;;;;;;4.65;3.08;;;20.00;61.90;;;;;;4994171;28;20195;-67
2022/08/11 03:52:21;;;;;;;3.17;2.50;;;20.00;62.00;;;;;;4983767;28;21867;-65
2022/08/11 03:54:56;;;;;;;3.08;2.30;;;20.00;62.50;;;;;;4983236;28;20196;-66
2022/08/11 03:57:47;;;;;;;3.15;2.80;;;19.90;61.80;;;;;;5005416;28;20190;-67
2022/08/11 04:00:39;;;;;;;6.00;4.38;;;19.80;63.40;;;;;;5001572;28;20199;-68
2022/08/11 04:03:33;;;;;;;4.38;3.45;;;19.80;62.20;;;;;;5004062;28;20298;-66
2022/08/11 04:06:30;;;;;;;5.60;4.38;;;19.80;62.50;;;;;;5009536;28;20179;-67
2022/08/11 04:09:34;;;;;;;3.70;3.30;;;19.70;62.40;;;;;;4989095;28;20271;-66
2022/08/11 04:12:25;;;;;;;3.20;2.78;;;19.70;63.50;;;;;;5005856;28;20234;-66
2022/08/11 04:18:26;;;;;;;4.30;3.03;;;19.60;63.90;;;;;;5007323;28;20170;-69
2022/08/11 04:21:37;;;;;;;3.17;2.47;;;19.60;64.20;;;;;;5008160;28;20195;-65
2022/08/11 04:24:41;;;;;;;3.33;2.40;;;19.60;64.80;;;;;;5018504;28;20250;-66
2022/08/11 04:27:33;;;;;;;12.57;8.18;;;19.50;65.00;;;;;;5020941;28;20199;-66
2022/08/11 04:30:12;;;;;;;8.48;6.70;;;19.50;64.30;;;;;;4985958;28;20230;-67
2022/08/11 04:32:46;;;;;;;4.28;3.88;;;19.50;64.40;;;;;;4989343;28;20183;-66
2022/08/11 04:35:25;;;;;;;4.47;3.90;;;19.50;64.60;;;;;;5009288;28;20183;-66
2022/08/11 04:38:12;;;;;;;4.05;3.33;;;19.50;65.60;;;;;;5002455;28;20295;-69
2022/08/11 04:41:15;;;;;;;4.78;2.90;;;19.50;65.10;;;;;;5002558;28;20199;-65
2022/08/11 04:44:10;;;;;;;3.30;2.35;;;19.50;66.50;;;;;;5000833;28;20175;-67
2022/08/11 04:46:44;;;;;;;3.85;2.40;;;19.50;66.50;;;;;;5002013;28;20323;-65
2022/08/11 05:01:40;;;;;;;5.60;2.05;;;19.50;65.80;;;;;;5007920;28;20225;-65
2022/08/11 05:05:29;;;;;;;4.43;1.75;;;19.50;67.50;;;;;;4997969;28;20190;-68
2022/08/11 05:07:06;;;;;;;2.88;2.20;;;19.50;66.40;;;;;;5005540;28;20187;-65
2022/08/11 05:10:03;;;;;;;2.92;2.28;;;19.60;67.60;;;;;;4995915;28;20218;-66
2022/08/11 05:12:42;;;;;;;2.40;2.10;;;19.60;68.00;;;;;;5012884;28;20171;-68
2022/08/11 05:35:44;;;;;;;2.83;2.08;;;19.90;68.00;;;;;;4986953;28;20263;-74
2022/08/11 05:58:03;;;;;;;2.70;2.10;;;20.50;69.90;;;;;;4997429;28;20202;-74
2022/08/11 06:00:33;;;;;;;3.08;2.08;;;20.50;71.20;;;;;;4988529;28;20179;-74
2022/08/11 06:03:02;;;;;;;2.33;2.13;;;20.60;70.40;;;;;;5026024;28;20187;-71
2022/08/11 06:05:36;;;;;;;3.33;2.05;;;20.60;70.60;;;;;;4993876;28;20194;-72
2022/08/11 06:08:04;;;;;;;4.38;2.15;;;20.70;71.10;;;;;;5023096;28;20237;-73
2022/08/11 06:10:34;;;;;;;2.17;1.98;;;20.70;70.50;;;;;;4989140;28;20241;-71
2022/08/11 06:13:00;;;;;;;2.30;2.03;;;20.80;70.60;;;;;;5005760;28;20256;-73
2022/08/11 06:15:27;;;;;;;2.30;1.88;;;20.80;70.40;;;;;;5016394;28;20179;-73
2022/08/11 06:17:55;;;;;;;2.70;2.05;;;20.90;70.50;;;;;;5021039;28;20179;-73
2022/08/11 06:20:22;;;;;;;3.58;1.90;;;20.90;70.50;;;;;;5026742;28;20183;-72
2022/08/11 06:22:59;;;;;;;3.13;2.28;;;21.00;70.40;;;;;;4991938;28;20187;-73
2022/08/11 06:25:35;;;;;;;2.15;1.95;;;21.10;70.70;;;;;;5002865;28;20324;-73
2022/08/11 06:28:06;;;;;;;2.45;2.00;;;21.10;70.60;;;;;;5022090;28;20206;-73
2022/08/11 06:30:39;;;;;;;2.30;2.10;;;21.20;70.40;;;;;;4990532;28;20238;-73
2022/08/11 06:33:11;;;;;;;3.70;2.38;;;21.30;70.50;;;;;;4990850;28;20183;-73
2022/08/11 06:36:11;;;;;;;3.10;2.05;;;21.30;70.50;;;;;;4993161;28;20222;-72
2022/08/11 06:38:37;;;;;;;2.47;2.13;;;21.40;70.80;;;;;;5014111;28;20199;-74
2022/08/11 06:41:31;;;;;;;2.67;2.10;;;21.40;70.30;;;;;;5020641;28;20262;-73
2022/08/11 06:44:38;;;;;;;2.28;2.05;;;21.50;70.50;;;;;;4988121;28;20159;-70
2022/08/11 06:47:10;;;;;;;4.90;2.13;;;21.60;70.90;;;;;;5008304;28;20191;-73
2022/08/11 06:52:36;;;;;;;3.45;2.00;;;21.70;70.70;;;;;;4999996;28;20210;-72
2022/08/11 07:00:26;;;;;;;2.47;1.80;;;21.80;70.50;;;;;;5025340;28;20194;-73
2022/08/11 07:00:52;;;;;;;2.53;1.70;;;22.00;70.10;;;;;;5005006;28;20238;-73
2022/08/11 07:03:19;;;;;;;2.00;1.77;;;22.00;70.10;;;;;;4996464;28;20212;-73
2022/08/11 07:05:49;;;;;;;3.33;2.00;;;22.10;70.00;;;;;;5023288;28;20183;-71
2022/08/11 07:17:19;;;;;;;2.92;1.95;;;22.50;69.30;;;;;;5007840;28;20210;-73
2022/08/11 07:31:23;;;;;;;3.72;1.92;;;22.90;68.60;;;;;;4991544;28;20190;-72
2022/08/11 07:33:51;;;;;;;2.25;2.05;;;23.00;68.30;;;;;;5003866;28;20180;-74
2022/08/11 07:36:17;;;;;;;2.25;2.03;;;23.10;68.00;;;;;;5006510;28;20179;-73
2022/08/11 07:38:50;;;;;;;1.80;1.70;;;23.20;67.70;;;;;;4993095;28;20198;-73
2022/08/11 07:41:22;;;;;;;2.22;1.92;;;23.30;67.50;;;;;;4990659;28;20195;-74
2022/08/11 07:43:53;;;;;;;2.20;2.00;;;23.40;67.10;;;;;;5020308;28;20210;-74
2022/08/11 07:54:40;;;;;;;2.83;2.17;;;23.80;66.70;;;;;;5007913;28;20218;-73
2022/08/11 08:19:20;;;;;;;2.47;1.90;;;24.70;64.90;;;;;;5011637;28;20187;-74
2022/08/11 08:21:47;;;;;;;4.97;2.20;;;24.80;64.70;;;;;;4992091;28;20175;-73
2022/08/11 08:24:18;;;;;;;3.15;2.00;;;24.90;64.40;;;;;;4989666;28;20175;-71
2022/08/11 08:26:59;;;;;;;2.20;1.95;;;25.00;64.80;;;;;;4993948;28;20266;-74
2022/08/11 08:32:21;;;;;;;2.90;2.03;;;25.20;63.70;;;;;;5009431;28;20245;-72
2022/08/11 08:34:51;;;;;;;3.95;2.30;;;25.40;63.80;;;;;;5014898;28;20156;-73
2022/08/11 08:37:18;;;;;;;2.30;1.95;;;25.50;63.50;;;;;;4992473;28;20178;-75
2022/08/11 08:39:46;;;;;;;5.75;2.53;;;25.60;63.50;;;;;;4988399;28;20208;-74
2022/08/11 08:42:22;;;;;;;2.30;1.90;;;25.70;63.30;;;;;;4993771;28;20171;-73
2022/08/11 08:44:57;;;;;;;3.15;1.85;;;25.80;62.80;;;;;;4995192;28;20167;-73
2022/08/11 08:47:27;;;;;;;4.63;2.30;;;25.90;62.80;;;;;;4976509;28;20207;-74
2022/08/11 08:50:04;;;;;;;3.05;2.30;;;26.00;62.30;;;;;;5022699;28;20282;-72
2022/08/11 08:52:38;;;;;;;4.20;1.98;;;26.10;61.60;;;;;;5026662;28;20487;-73
2022/08/11 08:55:06;;;;;;;2.58;1.80;;;26.20;61.80;;;;;;4975587;28;20198;-75
2022/08/11 08:57:37;;;;;;;3.08;1.80;;;26.40;61.80;;;;;;4979164;28;20176;-71
2022/08/11 09:00:07;;;;;;;3.63;1.80;;;26.50;60.80;;;;;;4986389;28;20175;-74
2022/08/11 09:02:33;;;;;;;2.58;1.88;;;26.60;60.00;;;;;;4993279;28;20213;-74
2022/08/11 09:05:03;;;;;;;2.83;1.77;;;26.70;60.30;;;;;;4994386;28;20242;-70
2022/08/11 09:07:30;;;;;;;2.10;1.73;;;26.80;59.70;;;;;;4986431;28;20175;-72
2022/08/11 09:09:58;;;;;;;2.08;1.73;;;26.90;59.70;;;;;;4988846;28;20195;-73
2022/08/11 09:12:29;;;;;;;2.03;1.63;;;27.00;59.40;;;;;;4994939;28;20171;-74
2022/08/11 09:15:02;;;;;;;2.25;1.80;;;27.10;58.70;;;;;;5025390;28;20263;-72
2022/08/11 09:17:55;;;;;;;2.85;1.80;;;27.20;58.70;;;;;;4968619;28;20176;-74
2022/08/11 09:20:25;;;;;;;2.50;1.92;;;27.20;57.60;;;;;;5002230;28;20190;-73
2022/08/11 09:28:29;;;;;;;2.47;1.58;;;27.60;58.10;;;;;;5011949;28;20249;-74
2022/08/11 09:30:56;;;;;;;1.90;1.73;;;27.70;57.70;;;;;;4997762;28;20212;-68
2022/08/11 09:33:23;;;;;;;3.67;2.10;;;27.80;57.20;;;;;;4997860;28;20191;-70
2022/08/11 09:35:51;;;;;;;2.38;2.08;;;27.90;57.10;;;;;;5028841;28;20199;-75
2022/08/11 09:41:09;;;;;;;4.20;1.77;;;28.00;56.10;;;;;;4996171;28;20227;-75
2022/08/11 09:46:27;;;;;;;2.90;1.50;;;28.20;55.70;;;;;;5012514;28;20186;-75
2022/08/11 09:48:58;;;;;;;2.53;1.60;;;28.30;55.50;;;;;;4992857;28;20365;-74
2022/08/11 09:51:28;;;;;;;2.80;2.00;;;28.30;55.60;;;;;;5008173;28;20252;-73
2022/08/11 09:53:57;;;;;;;2.30;1.75;;;28.50;55.60;;;;;;4996615;28;20180;-74
2022/08/11 09:59:11;;;;;;;2.30;1.90;;;28.70;55.30;;;;;;5013953;28;20166;-73
2022/08/11 10:01:49;;;;;;;4.57;1.55;;;28.90;54.00;;;;;;5025958;28;20267;-75
2022/08/11 10:04:19;;;;;;;2.13;1.67;;;29.00;53.40;;;;;;5027596;28;20175;-75
2022/08/11 10:07:01;;;;;;;2.05;1.70;;;29.10;53.50;;;;;;5029595;28;20270;-76
2022/08/11 10:09:34;;;;;;;2.25;1.60;;;29.20;53.40;;;;;;5026043;28;20226;-76
2022/08/11 10:12:03;;;;;;;1.60;1.50;;;29.30;53.30;;;;;;4998229;28;20195;-73
2022/08/11 10:17:18;;;;;;;2.45;1.70;;;29.50;52.60;;;;;;5010903;28;20210;-75
2022/08/11 10:19:48;;;;;;;2.80;1.70;;;29.60;52.50;;;;;;5023846;28;20179;-74
2022/08/11 10:27:56;;;;;;;1.60;1.40;;;30.50;51.70;;;;;;5008918;28;20273;-75
2022/08/11 10:36:04;;;;;;;2.30;1.75;;;31.90;50.10;;;;;;4999874;28;20189;-73
2022/08/11 10:38:33;;;;;;;1.70;1.60;;;32.20;50.00;;;;;;5030551;28;20183;-73
2022/08/11 10:43:47;;;;;;;2.75;1.70;;;32.90;49.20;;;;;;5002021;28;20178;-75
2022/08/11 10:49:05;;;;;;;2.10;1.77;;;33.50;48.70;;;;;;4998749;28;20183;-75
2022/08/11 10:59:46;;;;;;;2.28;1.70;;;34.40;47.10;;;;;;5013884;28;20197;-73
2022/08/11 11:02:17;;;;;;;1.77;1.50;;;34.50;46.00;;;;;;4995333;28;20182;-75
2022/08/11 11:05:08;;;;;;;1.83;1.63;;;34.60;45.90;;;;;;4994387;28;20202;-75
2022/08/11 11:08:51;;;;;;;4.40;1.67;;;34.60;44.60;;;;;;4995791;28;20270;-74
2022/08/11 11:10:52;;;;;;;2.97;1.50;;;34.70;41.90;;;;;;5013931;28;20259;-76
2022/08/11 11:19:11;;;;;;;2.58;1.52;;;34.50;44.70;;;;;;4955079;29;20184;-76
2022/08/11 11:21:40;;;;;;;2.80;1.75;;;34.50;44.10;;;;;;4980041;28;20190;-72
2022/08/11 11:24:15;;;;;;;2.03;1.83;;;34.50;43.40;;;;;;4996775;28;20171;-73
2022/08/11 11:27:13;;;;;;;1.77;1.63;;;34.50;42.80;;;;;;4994513;28;20183;-71
2022/08/11 11:30:04;;;;;;;4.65;1.92;;;34.30;42.20;;;;;;4980771;28;20254;-74
2022/08/11 11:32:38;;;;;;;2.45;1.58;;;34.20;41.70;;;;;;5007029;28;20179;-73
2022/08/11 11:35:25;;;;;;;4.20;1.40;;;34.00;42.90;;;;;;4988103;28;20174;-75
2022/08/11 11:37:55;;;;;;;2.35;1.70;;;33.90;43.40;;;;;;5017760;28;20174;-72
2022/08/11 11:40:25;;;;;;;3.97;1.67;;;33.90;43.60;;;;;;4996659;28;20465;-72
2022/08/11 11:42:55;;;;;;;2.97;1.75;;;34.00;43.40;;;;;;4988516;28;20182;-76
2022/08/11 11:45:24;;;;;;;2.42;1.98;;;34.20;43.60;;;;;;5013220;28;20182;-76
2022/08/11 11:47:51;;;;;;;2.00;1.90;;;34.30;43.10;;;;;;4993967;28;20194;-75
2022/08/11 11:50:37;;;;;;;2.17;1.50;;;34.40;42.70;;;;;;4988388;28;20233;-75
2022/08/11 11:53:06;;;;;;;2.45;1.33;;;34.60;42.10;;;;;;4994988;28;20216;-75
2022/08/11 11:55:35;;;;;;;2.25;1.65;;;34.70;43.20;;;;;;5026335;28;20171;-75
2022/08/11 12:03:34;;;;;;;2.03;1.50;;;35.20;42.50;;;;;;5013469;28;20246;-76
2022/08/11 12:06:01;;;;;;;1.95;1.40;;;35.20;42.90;;;;;;5011230;28;20189;-77
2022/08/11 12:08:30;;;;;;;2.28;1.60;;;35.30;42.20;;;;;;4997117;28;20307;-77
2022/08/11 12:13:52;;;;;;;1.88;1.60;;;35.40;40.50;;;;;;5012639;28;20209;-72
2022/08/11 12:16:24;;;;;;;2.38;1.50;;;35.30;41.10;;;;;;5008275;28;20179;-72
2022/08/11 12:18:58;;;;;;;4.00;1.65;;;35.40;41.30;;;;;;5010375;28;20217;-73
2022/08/11 12:21:26;;;;;;;4.10;1.63;;;35.40;40.20;;;;;;5015806;28;20179;-73
2022/08/11 12:29:18;;;;;;;2.40;1.23;;;35.50;40.00;;;;;;5013050;28;20155;-72
2022/08/11 12:31:48;;;;;;;1.83;1.52;;;35.50;40.20;;;;;;4997229;28;20194;-71
2022/08/11 12:34:15;;;;;;;2.72;1.50;;;35.50;40.00;;;;;;4995277;28;20177;-73
2022/08/11 12:36:45;;;;;;;2.15;1.60;;;35.50;40.00;;;;;;5029358;28;20179;-75
2022/08/11 12:39:18;;;;;;;2.45;1.60;;;35.50;39.10;;;;;;4994543;28;20190;-74
2022/08/11 12:47:22;;;;;;;1.83;1.50;;;35.70;39.70;;;;;;5005876;28;20194;-73
2022/08/11 12:52:46;;;;;;;1.88;1.50;;;36.00;39.40;;;;;;5009418;28;20201;-73
2022/08/11 12:58:14;;;;;;;2.00;1.67;;;36.10;38.60;;;;;;5024183;28;20249;-75
2022/08/11 12:58:15;;;;;;;2.25;1.52;;;36.10;38.50;;;;;;5013058;28;20223;-74
2022/08/11 13:06:18;;;;;;;2.53;1.50;;;36.20;38.50;;;;;;5017534;28;20201;-74
2022/08/11 13:08:45;;;;;;;2.28;1.38;;;36.30;38.40;;;;;;5013441;28;20179;-75
2022/08/11 13:14:01;;;;;;;2.50;1.70;;;36.30;38.50;;;;;;5017187;28;20214;-76
2022/08/11 13:17:19;;;;;;;1.75;1.48;;;36.40;37.90;;;;;;4991122;28;20241;-74
2022/08/11 13:19:19;;;;;;;1.92;1.77;;;36.50;37.60;;;;;;5011808;28;20197;-75
2022/08/11 13:21:53;;;;;;;1.58;1.40;;;36.50;37.80;;;;;;4995331;28;20186;-74
2022/08/11 13:24:23;;;;;;;1.60;1.40;;;36.60;37.20;;;;;;4989617;28;20190;-75
2022/08/11 13:26:50;;;;;;;1.80;1.50;;;36.60;37.40;;;;;;5021845;28;20175;-67
2022/08/11 13:29:25;;;;;;;2.05;1.50;;;36.60;37.60;;;;;;4993477;28;20205;-76
2022/08/11 13:31:58;;;;;;;2.33;1.88;;;36.70;36.70;;;;;;5028169;28;20178;-75
2022/08/11 13:34:26;;;;;;;2.80;1.70;;;36.70;35.60;;;;;;4993792;28;20186;-75
2022/08/11 13:36:59;;;;;;;3.20;1.58;;;36.70;36.40;;;;;;5025751;28;20175;-74
2022/08/11 13:39:27;;;;;;;1.58;1.42;;;36.70;36.20;;;;;;4996997;28;20179;-71
2022/08/11 13:41:59;;;;;;;3.10;1.50;;;36.70;36.50;;;;;;4997583;28;20217;-74
2022/08/11 13:44:31;;;;;;;3.08;1.50;;;36.70;36.40;;;;;;4997634;28;20178;-75
2022/08/11 13:47:01;;;;;;;2.47;1.30;;;36.80;36.00;;;;;;4997567;28;20206;-71
2022/08/11 13:49:32;;;;;;;2.03;1.30;;;36.80;36.20;;;;;;4997972;28;20444;-76
2022/08/11 13:52:03;;;;;;;2.55;1.50;;;36.90;36.60;;;;;;4993671;28;20191;-78
2022/08/11 13:54:33;;;;;;;2.42;1.70;;;36.90;36.70;;;;;;4989149;28;20171;-77
2022/08/11 13:57:04;;;;;;;2.40;1.50;;;37.10;36.40;;;;;;5025962;28;20182;-73
2022/08/11 13:59:31;;;;;;;1.95;1.58;;;37.20;36.10;;;;;;4988949;28;20203;-73
2022/08/11 14:02:04;;;;;;;2.92;1.55;;;37.30;36.50;;;;;;4986068;28;20210;-77
2022/08/11 14:04:57;;;;;;;2.50;1.60;;;37.30;35.70;;;;;;4987976;28;20178;-77
2022/08/11 14:07:34;;;;;;;2.75;1.55;;;37.40;35.40;;;;;;4992037;28;20162;-79
2022/08/11 14:10:04;;;;;;;1.80;1.30;;;37.40;36.00;;;;;;5006313;28;20202;-78
2022/08/11 14:15:26;;;;;;;2.55;2.05;;;37.50;35.70;;;;;;5008382;28;20205;-75
2022/08/11 14:18:01;;;;;;;1.80;1.35;;;37.50;35.30;;;;;;4985667;28;20202;-78
2022/08/11 14:22:05;;;;;;;2.80;1.65;;;37.60;35.20;;;;;;5022424;28;20197;-73
2022/08/11 14:23:28;;;;;;;2.72;1.52;;;37.60;35.50;;;;;;5004217;28;20247;-77
2022/08/11 14:28:41;;;;;;;1.80;1.50;;;37.80;35.60;;;;;;4998327;28;20221;-79
2022/08/11 14:31:08;;;;;;;2.35;1.80;;;37.80;35.50;;;;;;4994130;28;20215;-76
2022/08/11 14:33:35;;;;;;;1.98;1.77;;;37.90;34.90;;;;;;5013159;28;20180;-75
2022/08/11 14:36:05;;;;;;;4.28;1.90;;;37.90;34.70;;;;;;5023482;28;20193;-77
2022/08/11 14:38:36;;;;;;;2.00;1.63;;;38.00;34.50;;;;;;4997654;28;20179;-75
2022/08/11 14:49:22;;;;;;;2.58;1.35;;;37.90;34.50;;;;;;5011215;28;20206;-77
2022/08/11 14:51:52;;;;;;;2.63;1.77;;;37.90;34.10;;;;;;5024791;28;20194;-77
2022/08/11 14:57:05;;;;;;;2.97;2.33;;;38.10;34.00;;;;;;5006978;28;20190;-78
2022/08/11 14:59:38;;;;;;;2.28;1.65;;;38.10;34.10;;;;;;4988018;28;20222;-78
2022/08/11 15:04:54;;;;;;;2.47;1.50;;;38.20;34.20;;;;;;4999036;28;20197;-78
2022/08/11 15:07:28;;;;;;;3.70;1.48;;;38.30;33.50;;;;;;5006916;28;20215;-78
2022/08/11 15:10:00;;;;;;;2.00;1.65;;;38.30;33.90;;;;;;5025502;28;20406;-76
2022/08/11 15:12:27;;;;;;;3.25;1.70;;;38.30;33.60;;;;;;4988976;28;20360;-73
2022/08/11 15:17:39;;;;;;;2.33;1.55;;;38.20;32.90;;;;;;5009251;28;20177;-77
2022/08/11 15:25:44;;;;;;;2.35;1.83;;;38.10;33.20;;;;;;5007704;28;20185;-78
2022/08/11 15:39:36;;;;;;;1.20;1.10;;;38.00;32.60;;;;;;4998874;28;20226;-74
2022/08/11 15:47:58;;;;;;;3.90;1.67;;;38.00;32.40;;;;;;5013322;28;20197;-76
2022/08/11 15:50:29;;;;;;;1.70;1.45;;;38.00;32.20;;;;;;4997035;28;20244;-76
2022/08/11 15:53:27;;;;;;;2.13;1.52;;;37.90;32.20;;;;;;4990656;28;20191;-77
2022/08/11 15:55:57;;;;;;;2.13;1.70;;;37.90;31.80;;;;;;4975670;28;20209;-75
2022/08/11 16:04:11;;;;;;;1.80;1.70;;;37.80;32.10;;;;;;4991815;28;20221;-72
2022/08/11 16:06:58;;;;;;;1.98;1.70;;;37.80;32.00;;;;;;5026112;28;20206;-77
2022/08/11 16:09:45;;;;;;;2.58;1.80;;;37.70;31.80;;;;;;4984923;28;20207;-74
2022/08/11 16:12:14;;;;;;;1.70;1.52;;;37.50;31.60;;;;;;4983964;28;20218;-75
2022/08/11 16:17:39;;;;;;;2.83;2.20;;;37.20;31.80;;;;;;5004538;28;20193;-75
2022/08/11 16:20:07;;;;;;;1.85;1.60;;;36.90;31.40;;;;;;4991096;28;20170;-75
2022/08/11 16:22:41;;;;;;;3.15;2.47;;;36.70;31.70;;;;;;4993321;28;20190;-75
2022/08/11 16:25:11;;;;;;;2.85;2.15;;;36.40;31.70;;;;;;5004871;28;20166;-77
2022/08/11 16:27:43;;;;;;;1.95;1.70;;;36.20;31.80;;;;;;5025623;28;20221;-76
2022/08/11 16:30:10;;;;;;;2.13;1.60;;;36.00;31.80;;;;;;4996794;28;20249;-74
2022/08/11 16:32:42;;;;;;;3.85;2.13;;;35.70;31.90;;;;;;4997312;28;20167;-73
2022/08/11 16:40:49;;;;;;;1.85;1.50;;;35.20;32.40;;;;;;5003200;28;20217;-74
2022/08/11 16:48:49;;;;;;;1.65;1.50;;;34.70;32.60;;;;;;5008670;28;20192;-75
2022/08/11 16:51:19;;;;;;;2.03;1.45;;;34.50;32.80;;;;;;4992355;28;20187;-74
2022/08/11 16:53:50;;;;;;;2.45;1.83;;;34.40;32.90;;;;;;5015446;28;20219;-70
2022/08/11 16:56:44;;;;;;;2.20;1.73;;;34.30;32.90;;;;;;5009194;28;20238;-75
2022/08/11 16:59:22;;;;;;;1.77;1.60;;;34.20;33.00;;;;;;4985708;28;20175;-75
2022/08/11 17:02:06;;;;;;;1.83;1.60;;;34.10;33.20;;;;;;5023311;28;20183;-73
2022/08/11 17:13:34;;;;;;;2.63;1.92;;;33.80;33.20;;;;;;5008008;28;20276;-75
2022/08/11 17:16:10;;;;;;;2.72;2.00;;;33.70;33.30;;;;;;5004396;28;20171;-74
2022/08/11 17:19:00;;;;;;;3.17;2.15;;;33.70;33.60;;;;;;5013155;28;20191;-72
2022/08/11 17:23:45;;;;;;;2.83;2.10;;;33.60;33.40;;;;;;4991838;28;20234;-73
2022/08/11 17:24:26;;;;;;;2.00;1.80;;;33.50;33.50;;;;;;4998438;28;20226;-75
2022/08/11 17:26:56;;;;;;;2.20;1.75;;;33.50;33.50;;;;;;5007455;28;20214;-73
2022/08/11 17:29:37;;;;;;;3.45;1.98;;;33.50;33.60;;;;;;4990883;28;20162;-72
2022/08/11 17:37:49;;;;;;;2.97;2.20;;;33.30;33.70;;;;;;4994417;28;20206;-71
2022/08/11 17:40:23;;;;;;;2.55;1.80;;;33.20;33.70;;;;;;5020138;28;20170;-73
2022/08/11 17:48:41;;;;;;;3.25;1.80;;;33.10;33.80;;;;;;5014271;28;20287;-71
2022/08/11 17:59:50;;;;;;;3.45;1.90;;;33.00;33.80;;;;;;4993576;28;20230;-72
2022/08/11 17:59:51;;;;;;;1.95;1.77;;;32.80;34.10;;;;;;5011410;28;20217;-74
2022/08/11 18:05:11;;;;;;;2.47;2.00;;;32.70;35.00;;;;;;5015702;28;20194;-71
